sensor_id;sensor_type;location;lat;lon;timestamp;temperature;humidity
18392;DHT22;9322;50.932;5.318;2022-10-01T00:00:50;11.30;99.90
18392;DHT22;9322;50.932;5.318;2022-10-01T00:03:17;11.20;99.90
18392;DHT22;9322;50.932;5.318;2022-10-01T00:05:43;11.10;99.90
18392;DHT22;9322;50.932;5.318;2022-10-01T00:08:09;11.10;99.90
18392;DHT22;9322;50.932;5.318;2022-10-01T00:10:35;11.10;99.90
18392;DHT22;9322;50.932;5.318;2022-10-01T00:13:02;11.30;99.90
18392;DHT22;9322;50.932;5.318;2022-10-01T00:15:30;11.10;99.90
18392;DHT22;9322;50.932;5.318;2022-10-01T00:17:57;11.10;99.90
18392;DHT22;9322;50.932;5.318;2022-10-01T00:20:22;11.10;99.90
18392;DHT22;9322;50.932;5.318;2022-10-01T00:22:48;11.00;99.90
18392;DHT22;9322;50.932;5.318;2022-10-01T00:25:14;11.00;99.90
18392;DHT22;9322;50.932;5.318;2022-10-01T00:27:43;11.00;99.90
18392;DHT22;9322;50.932;5.318;2022-10-01T00:30:10;11.00;99.90
18392;DHT22;9322;50.932;5.318;2022-10-01T00:32:36;11.00;99.90
18392;DHT22;9322;50.932;5.318;2022-10-01T00:35:06;11.20;99.90
18392;DHT22;9322;50.932;5.318;2022-10-01T00:37:34;11.00;99.90
18392;DHT22;9322;50.932;5.318;2022-10-01T00:40:01;11.00;99.90
18392;DHT22;9322;50.932;5.318;2022-10-01T00:42:26;11.00;99.90
18392;DHT22;9322;50.932;5.318;2022-10-01T00:44:52;11.00;99.90
18392;DHT22;9322;50.932;5.318;2022-10-01T00:47:25;11.00;99.90
18392;DHT22;9322;50.932;5.318;2022-10-01T00:50:00;10.90;99.90
18392;DHT22;9322;50.932;5.318;2022-10-01T00:52:31;10.90;99.90
18392;DHT22;9322;50.932;5.318;2022-10-01T00:57:27;11.10;99.90
18392;DHT22;9322;50.932;5.318;2022-10-01T00:59:56;11.10;99.90
18392;DHT22;9322;50.932;5.318;2022-10-01T01:02:22;10.90;99.90
18392;DHT22;9322;50.932;5.318;2022-10-01T01:04:48;10.90;99.90
18392;DHT22;9322;50.932;5.318;2022-10-01T01:07:14;11.00;99.90
18392;DHT22;9322;50.932;5.318;2022-10-01T01:09:43;11.00;99.90
18392;DHT22;9322;50.932;5.318;2022-10-01T01:23:36;11.00;99.90
18392;DHT22;9322;50.932;5.318;2022-10-01T01:29:05;11.30;99.90
18392;DHT22;9322;50.932;5.318;2022-10-01T01:31:40;11.30;99.90
18392;DHT22;9322;50.932;5.318;2022-10-01T01:34:09;11.30;99.90
18392;DHT22;9322;50.932;5.318;2022-10-01T01:36:40;11.10;99.90
18392;DHT22;9322;50.932;5.318;2022-10-01T01:39:09;11.00;99.90
18392;DHT22;9322;50.932;5.318;2022-10-01T01:41:41;11.00;99.90
18392;DHT22;9322;50.932;5.318;2022-10-01T01:44:17;10.90;99.90
18392;DHT22;9322;50.932;5.318;2022-10-01T01:46:46;10.90;99.90
18392;DHT22;9322;50.932;5.318;2022-10-01T01:49:15;10.90;99.90
18392;DHT22;9322;50.932;5.318;2022-10-01T01:52:08;10.90;99.90
18392;DHT22;9322;50.932;5.318;2022-10-01T01:54:35;11.00;99.90
18392;DHT22;9322;50.932;5.318;2022-10-01T01:57:02;11.10;99.90
18392;DHT22;9322;50.932;5.318;2022-10-01T01:59:29;11.00;99.90
18392;DHT22;9322;50.932;5.318;2022-10-01T02:01:55;11.00;99.90
18392;DHT22;9322;50.932;5.318;2022-10-01T02:23:25;11.20;99.90
18392;DHT22;9322;50.932;5.318;2022-10-01T02:25:57;11.30;99.90
18392;DHT22;9322;50.932;5.318;2022-10-01T02:28:24;11.30;99.90
18392;DHT22;9322;50.932;5.318;2022-10-01T02:30:50;11.20;99.90
18392;DHT22;9322;50.932;5.318;2022-10-01T02:33:22;11.20;99.90
18392;DHT22;9322;50.932;5.318;2022-10-01T02:35:50;11.30;99.90
18392;DHT22;9322;50.932;5.318;2022-10-01T02:38:18;11.20;99.90
18392;DHT22;9322;50.932;5.318;2022-10-01T02:40:46;11.10;99.90
18392;DHT22;9322;50.932;5.318;2022-10-01T02:43:25;11.10;99.90
18392;DHT22;9322;50.932;5.318;2022-10-01T02:45:55;11.00;99.90
18392;DHT22;9322;50.932;5.318;2022-10-01T02:48:23;11.00;99.90
18392;DHT22;9322;50.932;5.318;2022-10-01T02:50:52;11.10;99.90
18392;DHT22;9322;50.932;5.318;2022-10-01T02:53:34;11.20;99.90
18392;DHT22;9322;50.932;5.318;2022-10-01T02:56:02;11.20;99.90
18392;DHT22;9322;50.932;5.318;2022-10-01T02:58:29;11.20;99.90
18392;DHT22;9322;50.932;5.318;2022-10-01T03:00:55;11.10;99.90
18392;DHT22;9322;50.932;5.318;2022-10-01T03:03:20;11.10;99.90
18392;DHT22;9322;50.932;5.318;2022-10-01T03:05:46;11.00;99.90
18392;DHT22;9322;50.932;5.318;2022-10-01T03:08:11;11.00;99.90
18392;DHT22;9322;50.932;5.318;2022-10-01T03:10:37;11.10;99.90
18392;DHT22;9322;50.932;5.318;2022-10-01T03:13:02;11.10;99.90
18392;DHT22;9322;50.932;5.318;2022-10-01T03:15:30;11.10;99.90
18392;DHT22;9322;50.932;5.318;2022-10-01T03:17:56;11.20;99.90
18392;DHT22;9322;50.932;5.318;2022-10-01T03:20:21;11.20;99.90
18392;DHT22;9322;50.932;5.318;2022-10-01T03:22:47;11.40;99.90
18392;DHT22;9322;50.932;5.318;2022-10-01T03:25:14;11.20;99.90
18392;DHT22;9322;50.932;5.318;2022-10-01T03:27:40;11.10;99.90
18392;DHT22;9322;50.932;5.318;2022-10-01T03:30:06;11.20;99.90
18392;DHT22;9322;50.932;5.318;2022-10-01T03:32:32;11.20;99.90
18392;DHT22;9322;50.932;5.318;2022-10-01T03:34:57;11.30;99.90
18392;DHT22;9322;50.932;5.318;2022-10-01T03:37:24;11.30;99.90
18392;DHT22;9322;50.932;5.318;2022-10-01T03:39:49;11.40;99.90
18392;DHT22;9322;50.932;5.318;2022-10-01T03:42:15;11.40;99.90
18392;DHT22;9322;50.932;5.318;2022-10-01T03:44:41;11.40;99.90
18392;DHT22;9322;50.932;5.318;2022-10-01T03:47:08;11.40;99.90
18392;DHT22;9322;50.932;5.318;2022-10-01T03:49:34;11.50;99.90
18392;DHT22;9322;50.932;5.318;2022-10-01T03:52:00;11.50;99.90
18392;DHT22;9322;50.932;5.318;2022-10-01T03:54:26;11.40;99.90
18392;DHT22;9322;50.932;5.318;2022-10-01T03:56:54;11.50;99.90
18392;DHT22;9322;50.932;5.318;2022-10-01T03:59:20;11.40;99.90
18392;DHT22;9322;50.932;5.318;2022-10-01T04:01:45;11.50;99.90
18392;DHT22;9322;50.932;5.318;2022-10-01T04:04:11;11.60;99.90
18392;DHT22;9322;50.932;5.318;2022-10-01T04:06:37;11.50;99.90
18392;DHT22;9322;50.932;5.318;2022-10-01T04:09:02;11.50;99.90
18392;DHT22;9322;50.932;5.318;2022-10-01T04:11:28;11.50;99.90
18392;DHT22;9322;50.932;5.318;2022-10-01T04:13:54;11.40;99.90
18392;DHT22;9322;50.932;5.318;2022-10-01T04:16:22;11.30;99.90
18392;DHT22;9322;50.932;5.318;2022-10-01T04:18:49;11.40;99.90
18392;DHT22;9322;50.932;5.318;2022-10-01T04:21:15;11.40;99.90
18392;DHT22;9322;50.932;5.318;2022-10-01T04:23:40;11.60;99.90
18392;DHT22;9322;50.932;5.318;2022-10-01T04:26:06;11.70;99.90
18392;DHT22;9322;50.932;5.318;2022-10-01T04:28:33;11.60;99.90
18392;DHT22;9322;50.932;5.318;2022-10-01T04:30:59;11.50;99.90
18392;DHT22;9322;50.932;5.318;2022-10-01T04:33:43;11.60;99.90
18392;DHT22;9322;50.932;5.318;2022-10-01T04:36:09;11.80;99.90
18392;DHT22;9322;50.932;5.318;2022-10-01T04:38:34;12.00;99.90
18392;DHT22;9322;50.932;5.318;2022-10-01T04:41:00;12.00;99.90
18392;DHT22;9322;50.932;5.318;2022-10-01T04:43:26;12.20;99.90
18392;DHT22;9322;50.932;5.318;2022-10-01T04:45:51;12.20;99.90
18392;DHT22;9322;50.932;5.318;2022-10-01T04:48:17;12.50;99.90
18392;DHT22;9322;50.932;5.318;2022-10-01T04:50:43;12.30;99.90
18392;DHT22;9322;50.932;5.318;2022-10-01T04:53:09;12.20;99.90
18392;DHT22;9322;50.932;5.318;2022-10-01T04:55:34;12.20;99.90
18392;DHT22;9322;50.932;5.318;2022-10-01T04:58:00;12.10;99.90
18392;DHT22;9322;50.932;5.318;2022-10-01T05:00:26;12.20;99.90
18392;DHT22;9322;50.932;5.318;2022-10-01T05:02:52;12.20;99.90
18392;DHT22;9322;50.932;5.318;2022-10-01T05:05:20;12.40;99.90
18392;DHT22;9322;50.932;5.318;2022-10-01T05:07:49;12.40;99.90
18392;DHT22;9322;50.932;5.318;2022-10-01T05:10:19;12.70;99.90
18392;DHT22;9322;50.932;5.318;2022-10-01T05:12:46;12.20;99.90
18392;DHT22;9322;50.932;5.318;2022-10-01T05:15:16;12.30;99.90
18392;DHT22;9322;50.932;5.318;2022-10-01T05:17:45;12.30;99.90
18392;DHT22;9322;50.932;5.318;2022-10-01T05:20:37;12.40;99.90
18392;DHT22;9322;50.932;5.318;2022-10-01T05:23:08;12.40;99.90
18392;DHT22;9322;50.932;5.318;2022-10-01T05:25:36;12.40;99.90
18392;DHT22;9322;50.932;5.318;2022-10-01T05:28:02;12.40;99.90
18392;DHT22;9322;50.932;5.318;2022-10-01T05:30:31;12.30;99.90
18392;DHT22;9322;50.932;5.318;2022-10-01T05:32:58;12.20;99.90
18392;DHT22;9322;50.932;5.318;2022-10-01T05:35:24;12.30;99.90
18392;DHT22;9322;50.932;5.318;2022-10-01T05:37:57;12.40;99.90
18392;DHT22;9322;50.932;5.318;2022-10-01T05:40:25;12.50;99.90
18392;DHT22;9322;50.932;5.318;2022-10-01T05:42:54;12.70;99.90
18392;DHT22;9322;50.932;5.318;2022-10-01T05:45:20;12.70;99.90
18392;DHT22;9322;50.932;5.318;2022-10-01T05:47:48;12.50;99.90
18392;DHT22;9322;50.932;5.318;2022-10-01T05:50:14;12.60;99.90
18392;DHT22;9322;50.932;5.318;2022-10-01T05:52:47;12.60;99.90
18392;DHT22;9322;50.932;5.318;2022-10-01T05:55:14;12.70;99.90
18392;DHT22;9322;50.932;5.318;2022-10-01T05:57:40;12.70;99.90
18392;DHT22;9322;50.932;5.318;2022-10-01T06:00:06;12.70;99.90
18392;DHT22;9322;50.932;5.318;2022-10-01T06:02:31;12.70;99.90
18392;DHT22;9322;50.932;5.318;2022-10-01T06:04:57;12.90;99.90
18392;DHT22;9322;50.932;5.318;2022-10-01T06:07:22;12.90;99.90
18392;DHT22;9322;50.932;5.318;2022-10-01T06:09:48;12.90;99.90
18392;DHT22;9322;50.932;5.318;2022-10-01T06:12:14;12.90;99.90
18392;DHT22;9322;50.932;5.318;2022-10-01T06:14:40;13.10;99.90
18392;DHT22;9322;50.932;5.318;2022-10-01T06:17:06;13.00;99.90
18392;DHT22;9322;50.932;5.318;2022-10-01T06:19:31;13.10;99.90
18392;DHT22;9322;50.932;5.318;2022-10-01T06:21:57;13.10;99.90
18392;DHT22;9322;50.932;5.318;2022-10-01T06:24:22;13.20;99.90
18392;DHT22;9322;50.932;5.318;2022-10-01T06:26:48;13.30;99.90
18392;DHT22;9322;50.932;5.318;2022-10-01T06:29:14;13.30;99.90
18392;DHT22;9322;50.932;5.318;2022-10-01T06:31:39;13.40;99.90
18392;DHT22;9322;50.932;5.318;2022-10-01T06:34:05;13.30;99.90
18392;DHT22;9322;50.932;5.318;2022-10-01T06:36:32;13.30;99.90
18392;DHT22;9322;50.932;5.318;2022-10-01T06:38:58;13.50;99.90
18392;DHT22;9322;50.932;5.318;2022-10-01T06:41:23;13.40;99.90
18392;DHT22;9322;50.932;5.318;2022-10-01T06:43:49;13.60;99.90
18392;DHT22;9322;50.932;5.318;2022-10-01T06:46:15;13.70;99.90
18392;DHT22;9322;50.932;5.318;2022-10-01T06:48:40;13.80;99.90
18392;DHT22;9322;50.932;5.318;2022-10-01T06:51:06;13.70;99.90
18392;DHT22;9322;50.932;5.318;2022-10-01T06:53:33;13.70;99.90
18392;DHT22;9322;50.932;5.318;2022-10-01T06:56:06;13.80;99.90
18392;DHT22;9322;50.932;5.318;2022-10-01T06:58:32;13.80;99.90
18392;DHT22;9322;50.932;5.318;2022-10-01T07:00:59;14.10;99.90
18392;DHT22;9322;50.932;5.318;2022-10-01T07:03:26;14.00;99.90
18392;DHT22;9322;50.932;5.318;2022-10-01T07:05:52;14.10;99.90
18392;DHT22;9322;50.932;5.318;2022-10-01T07:08:17;14.20;99.90
18392;DHT22;9322;50.932;5.318;2022-10-01T07:10:44;14.10;99.90
18392;DHT22;9322;50.932;5.318;2022-10-01T07:13:17;14.20;99.90
18392;DHT22;9322;50.932;5.318;2022-10-01T07:15:45;14.30;99.90
18392;DHT22;9322;50.932;5.318;2022-10-01T07:18:11;14.30;99.90
18392;DHT22;9322;50.932;5.318;2022-10-01T07:20:38;14.40;99.90
18392;DHT22;9322;50.932;5.318;2022-10-01T07:23:10;14.40;99.90
18392;DHT22;9322;50.932;5.318;2022-10-01T07:25:37;14.30;99.90
18392;DHT22;9322;50.932;5.318;2022-10-01T07:28:04;14.30;99.90
18392;DHT22;9322;50.932;5.318;2022-10-01T07:30:31;14.20;99.90
18392;DHT22;9322;50.932;5.318;2022-10-01T07:32:57;14.20;99.90
18392;DHT22;9322;50.932;5.318;2022-10-01T07:35:23;14.30;99.90
18392;DHT22;9322;50.932;5.318;2022-10-01T07:37:49;14.30;99.90
18392;DHT22;9322;50.932;5.318;2022-10-01T07:40:16;14.40;99.90
18392;DHT22;9322;50.932;5.318;2022-10-01T07:42:51;14.30;99.90
18392;DHT22;9322;50.932;5.318;2022-10-01T07:45:18;14.50;99.90
18392;DHT22;9322;50.932;5.318;2022-10-01T07:47:54;14.70;99.90
18392;DHT22;9322;50.932;5.318;2022-10-01T07:50:20;14.70;99.90
18392;DHT22;9322;50.932;5.318;2022-10-01T07:52:53;14.90;99.90
18392;DHT22;9322;50.932;5.318;2022-10-01T07:55:19;15.00;99.90
18392;DHT22;9322;50.932;5.318;2022-10-01T07:57:50;15.90;99.90
18392;DHT22;9322;50.932;5.318;2022-10-01T08:00:15;16.40;99.90
18392;DHT22;9322;50.932;5.318;2022-10-01T08:02:48;17.20;99.90
18392;DHT22;9322;50.932;5.318;2022-10-01T08:05:16;17.90;99.90
18392;DHT22;9322;50.932;5.318;2022-10-01T08:07:42;19.50;99.90
18392;DHT22;9322;50.932;5.318;2022-10-01T08:10:10;20.60;99.90
18392;DHT22;9322;50.932;5.318;2022-10-01T08:12:35;20.60;99.90
18392;DHT22;9322;50.932;5.318;2022-10-01T08:15:01;19.40;99.90
18392;DHT22;9322;50.932;5.318;2022-10-01T08:17:27;18.70;99.90
18392;DHT22;9322;50.932;5.318;2022-10-01T08:19:52;18.10;99.90
18392;DHT22;9322;50.932;5.318;2022-10-01T08:22:18;17.70;99.90
18392;DHT22;9322;50.932;5.318;2022-10-01T08:24:43;17.60;99.90
18392;DHT22;9322;50.932;5.318;2022-10-01T08:27:09;17.40;99.90
18392;DHT22;9322;50.932;5.318;2022-10-01T08:29:35;17.50;99.90
18392;DHT22;9322;50.932;5.318;2022-10-01T08:32:00;17.30;99.90
18392;DHT22;9322;50.932;5.318;2022-10-01T08:34:26;17.60;99.90
18392;DHT22;9322;50.932;5.318;2022-10-01T08:36:51;19.00;99.90
18392;DHT22;9322;50.932;5.318;2022-10-01T08:39:17;20.30;99.90
18392;DHT22;9322;50.932;5.318;2022-10-01T08:44:33;22.30;94.20
18392;DHT22;9322;50.932;5.318;2022-10-01T08:47:11;22.90;88.80
18392;DHT22;9322;50.932;5.318;2022-10-01T08:49:50;22.40;86.90
18392;DHT22;9322;50.932;5.318;2022-10-01T08:52:24;21.70;93.10
18392;DHT22;9322;50.932;5.318;2022-10-01T08:57:38;20.30;99.90
18392;DHT22;9322;50.932;5.318;2022-10-01T09:00:12;19.70;99.90
18392;DHT22;9322;50.932;5.318;2022-10-01T09:02:40;19.10;99.90
18392;DHT22;9322;50.932;5.318;2022-10-01T09:05:26;19.20;99.90
18392;DHT22;9322;50.932;5.318;2022-10-01T09:16:20;21.70;85.30
18392;DHT22;9322;50.932;5.318;2022-10-01T09:24:14;19.80;99.90
18392;DHT22;9322;50.932;5.318;2022-10-01T09:26:44;19.60;99.90
18392;DHT22;9322;50.932;5.318;2022-10-01T09:29:22;19.80;99.90
18392;DHT22;9322;50.932;5.318;2022-10-01T09:31:51;19.90;99.90
18392;DHT22;9322;50.932;5.318;2022-10-01T09:34:32;20.20;99.90
18392;DHT22;9322;50.932;5.318;2022-10-01T09:40:32;22.10;88.50
18392;DHT22;9322;50.932;5.318;2022-10-01T09:42:40;22.60;81.60
18392;DHT22;9322;50.932;5.318;2022-10-01T09:45:10;22.80;74.00
18392;DHT22;9322;50.932;5.318;2022-10-01T09:47:38;21.90;81.10
18392;DHT22;9322;50.932;5.318;2022-10-01T09:50:13;20.90;87.30
18392;DHT22;9322;50.932;5.318;2022-10-01T09:52:41;19.90;98.00
18392;DHT22;9322;50.932;5.318;2022-10-01T09:58:08;19.70;99.90
18392;DHT22;9322;50.932;5.318;2022-10-01T10:00:37;21.70;90.50
18392;DHT22;9322;50.932;5.318;2022-10-01T10:03:03;23.30;75.40
18392;DHT22;9322;50.932;5.318;2022-10-01T10:05:41;23.80;70.80
18392;DHT22;9322;50.932;5.318;2022-10-01T10:08:30;22.90;72.40
18392;DHT22;9322;50.932;5.318;2022-10-01T10:10:59;22.50;72.30
18392;DHT22;9322;50.932;5.318;2022-10-01T10:18:47;21.70;80.00
18392;DHT22;9322;50.932;5.318;2022-10-01T10:21:23;23.50;70.60
18392;DHT22;9322;50.932;5.318;2022-10-01T10:23:57;25.40;61.20
18392;DHT22;9322;50.932;5.318;2022-10-01T10:26:30;25.90;58.30
18392;DHT22;9322;50.932;5.318;2022-10-01T10:28:57;24.90;58.20
18392;DHT22;9322;50.932;5.318;2022-10-01T10:31:36;25.00;61.90
18392;DHT22;9322;50.932;5.318;2022-10-01T10:36:29;26.20;56.20
18392;DHT22;9322;50.932;5.318;2022-10-01T10:38:57;25.50;54.50
18392;DHT22;9322;50.932;5.318;2022-10-01T10:41:23;23.30;58.40
18392;DHT22;9322;50.932;5.318;2022-10-01T10:43:59;22.10;60.80
18392;DHT22;9322;50.932;5.318;2022-10-01T10:46:35;21.50;65.00
18392;DHT22;9322;50.932;5.318;2022-10-01T10:49:27;20.60;67.30
18392;DHT22;9322;50.932;5.318;2022-10-01T10:51:56;21.00;67.30
18392;DHT22;9322;50.932;5.318;2022-10-01T10:54:34;22.50;62.40
18392;DHT22;9322;50.932;5.318;2022-10-01T10:57:23;22.70;60.70
18392;DHT22;9322;50.932;5.318;2022-10-01T11:00:19;23.80;59.80
18392;DHT22;9322;50.932;5.318;2022-10-01T11:05:21;23.70;57.20
18392;DHT22;9322;50.932;5.318;2022-10-01T11:07:52;23.30;57.30
18392;DHT22;9322;50.932;5.318;2022-10-01T11:10:33;22.30;59.30
18392;DHT22;9322;50.932;5.318;2022-10-01T11:21:10;23.10;57.00
18392;DHT22;9322;50.932;5.318;2022-10-01T11:29:21;27.60;48.20
18392;DHT22;9322;50.932;5.318;2022-10-01T11:32:13;28.70;45.10
18392;DHT22;9322;50.932;5.318;2022-10-01T11:42:41;26.50;47.80
18392;DHT22;9322;50.932;5.318;2022-10-01T11:45:15;26.70;46.60
18392;DHT22;9322;50.932;5.318;2022-10-01T11:48:04;26.40;48.10
18392;DHT22;9322;50.932;5.318;2022-10-01T11:50:33;26.80;46.10
18392;DHT22;9322;50.932;5.318;2022-10-01T11:53:14;27.70;45.30
18392;DHT22;9322;50.932;5.318;2022-10-01T11:55:50;28.50;44.10
18392;DHT22;9322;50.932;5.318;2022-10-01T11:58:45;29.00;41.70
18392;DHT22;9322;50.932;5.318;2022-10-01T12:06:41;26.80;48.00
18392;DHT22;9322;50.932;5.318;2022-10-01T12:12:03;26.90;45.60
18392;DHT22;9322;50.932;5.318;2022-10-01T12:17:48;27.50;45.50
18392;DHT22;9322;50.932;5.318;2022-10-01T12:20:35;25.40;48.50
18392;DHT22;9322;50.932;5.318;2022-10-01T12:23:04;24.40;51.30
18392;DHT22;9322;50.932;5.318;2022-10-01T12:25:41;23.80;54.40
18392;DHT22;9322;50.932;5.318;2022-10-01T12:28:20;22.90;54.90
18392;DHT22;9322;50.932;5.318;2022-10-01T12:31:12;22.70;57.00
18392;DHT22;9322;50.932;5.318;2022-10-01T12:47:54;23.00;56.30
18392;DHT22;9322;50.932;5.318;2022-10-01T12:50:29;23.20;52.60
18392;DHT22;9322;50.932;5.318;2022-10-01T12:53:17;22.60;54.20
18392;DHT22;9322;50.932;5.318;2022-10-01T12:58:46;21.80;55.70
18392;DHT22;9322;50.932;5.318;2022-10-01T13:10:39;21.60;55.90
18392;DHT22;9322;50.932;5.318;2022-10-01T13:15:37;22.30;55.60
18392;DHT22;9322;50.932;5.318;2022-10-01T13:26:18;22.30;55.40
18392;DHT22;9322;50.932;5.318;2022-10-01T13:31:58;22.00;57.20
18392;DHT22;9322;50.932;5.318;2022-10-01T13:34:44;22.00;59.10
18392;DHT22;9322;50.932;5.318;2022-10-01T13:39:57;22.20;54.00
18392;DHT22;9322;50.932;5.318;2022-10-01T13:42:25;22.30;54.70
18392;DHT22;9322;50.932;5.318;2022-10-01T13:45:00;22.20;54.80
18392;DHT22;9322;50.932;5.318;2022-10-01T13:47:29;22.00;54.80
18392;DHT22;9322;50.932;5.318;2022-10-01T13:50:01;21.40;56.60
18392;DHT22;9322;50.932;5.318;2022-10-01T13:52:31;21.10;57.40
18392;DHT22;9322;50.932;5.318;2022-10-01T13:54:58;21.10;56.50
18392;DHT22;9322;50.932;5.318;2022-10-01T13:57:36;21.20;54.90
18392;DHT22;9322;50.932;5.318;2022-10-01T14:00:21;21.00;55.40
18392;DHT22;9322;50.932;5.318;2022-10-01T14:03:00;20.60;55.20
18392;DHT22;9322;50.932;5.318;2022-10-01T14:05:38;20.20;55.20
18392;DHT22;9322;50.932;5.318;2022-10-01T14:08:38;20.00;56.80
18392;DHT22;9322;50.932;5.318;2022-10-01T14:11:11;19.90;57.20
18392;DHT22;9322;50.932;5.318;2022-10-01T14:14:03;19.80;58.40
18392;DHT22;9322;50.932;5.318;2022-10-01T14:16:53;19.90;59.80
18392;DHT22;9322;50.932;5.318;2022-10-01T14:19:22;20.20;58.50
18392;DHT22;9322;50.932;5.318;2022-10-01T14:22:15;20.30;57.70
18392;DHT22;9322;50.932;5.318;2022-10-01T14:25:03;20.30;57.10
18392;DHT22;9322;50.932;5.318;2022-10-01T14:30:19;20.20;55.40
18392;DHT22;9322;50.932;5.318;2022-10-01T14:38:21;19.90;57.50
18392;DHT22;9322;50.932;5.318;2022-10-01T14:40:51;20.00;57.70
18392;DHT22;9322;50.932;5.318;2022-10-01T14:43:28;20.20;58.60
18392;DHT22;9322;50.932;5.318;2022-10-01T14:45:58;20.40;58.20
18392;DHT22;9322;50.932;5.318;2022-10-01T14:48:29;20.50;58.00
18392;DHT22;9322;50.932;5.318;2022-10-01T14:50:58;20.60;56.50
18392;DHT22;9322;50.932;5.318;2022-10-01T14:53:27;20.40;54.70
18392;DHT22;9322;50.932;5.318;2022-10-01T14:55:56;20.00;52.70
18392;DHT22;9322;50.932;5.318;2022-10-01T14:58:30;20.00;52.90
18392;DHT22;9322;50.932;5.318;2022-10-01T15:00:57;19.90;53.90
18392;DHT22;9322;50.932;5.318;2022-10-01T15:03:23;19.80;53.70
18392;DHT22;9322;50.932;5.318;2022-10-01T15:05:50;19.70;53.50
18392;DHT22;9322;50.932;5.318;2022-10-01T15:08:31;19.40;53.30
18392;DHT22;9322;50.932;5.318;2022-10-01T15:11:05;19.30;54.60
18392;DHT22;9322;50.932;5.318;2022-10-01T15:13:34;19.10;55.40
18392;DHT22;9322;50.932;5.318;2022-10-01T15:16:02;19.00;54.70
18392;DHT22;9322;50.932;5.318;2022-10-01T15:18:28;19.10;55.80
18392;DHT22;9322;50.932;5.318;2022-10-01T15:21:03;19.10;56.20
18392;DHT22;9322;50.932;5.318;2022-10-01T15:23:32;19.10;56.50
18392;DHT22;9322;50.932;5.318;2022-10-01T15:25:59;19.20;56.30
18392;DHT22;9322;50.932;5.318;2022-10-01T15:28:32;19.20;56.70
18392;DHT22;9322;50.932;5.318;2022-10-01T15:31:03;19.00;56.80
18392;DHT22;9322;50.932;5.318;2022-10-01T15:33:34;19.00;58.10
18392;DHT22;9322;50.932;5.318;2022-10-01T15:36:06;19.00;58.90
18392;DHT22;9322;50.932;5.318;2022-10-01T15:38:33;18.90;59.20
18392;DHT22;9322;50.932;5.318;2022-10-01T15:41:04;19.00;58.90
18392;DHT22;9322;50.932;5.318;2022-10-01T15:48:36;18.90;58.50
18392;DHT22;9322;50.932;5.318;2022-10-01T15:53:40;18.50;60.20
18392;DHT22;9322;50.932;5.318;2022-10-01T15:56:09;18.30;61.00
18392;DHT22;9322;50.932;5.318;2022-10-01T15:58:55;18.30;62.20
18392;DHT22;9322;50.932;5.318;2022-10-01T16:01:25;18.30;62.90
18392;DHT22;9322;50.932;5.318;2022-10-01T16:04:03;18.20;63.80
18392;DHT22;9322;50.932;5.318;2022-10-01T16:06:40;18.10;65.30
18392;DHT22;9322;50.932;5.318;2022-10-01T16:12:04;18.10;68.00
18392;DHT22;9322;50.932;5.318;2022-10-01T16:14:43;17.80;65.70
18392;DHT22;9322;50.932;5.318;2022-10-01T16:20:34;17.80;66.00
18392;DHT22;9322;50.932;5.318;2022-10-01T16:22:34;17.80;65.80
18392;DHT22;9322;50.932;5.318;2022-10-01T16:25:03;17.80;65.90
18392;DHT22;9322;50.932;5.318;2022-10-01T16:27:49;17.60;66.50
18392;DHT22;9322;50.932;5.318;2022-10-01T16:30:27;17.50;67.20
18392;DHT22;9322;50.932;5.318;2022-10-01T16:32:58;17.40;69.00
18392;DHT22;9322;50.932;5.318;2022-10-01T16:35:29;17.40;69.10
18392;DHT22;9322;50.932;5.318;2022-10-01T16:37:56;17.20;70.50
18392;DHT22;9322;50.932;5.318;2022-10-01T16:40:27;17.20;72.40
18392;DHT22;9322;50.932;5.318;2022-10-01T16:42:53;17.10;72.30
18392;DHT22;9322;50.932;5.318;2022-10-01T16:45:24;17.00;73.00
18392;DHT22;9322;50.932;5.318;2022-10-01T16:47:51;17.00;74.60
18392;DHT22;9322;50.932;5.318;2022-10-01T16:50:19;16.80;74.90
18392;DHT22;9322;50.932;5.318;2022-10-01T16:52:45;16.80;76.50
18392;DHT22;9322;50.932;5.318;2022-10-01T16:55:24;16.80;77.00
18392;DHT22;9322;50.932;5.318;2022-10-01T16:57:50;16.60;79.90
18392;DHT22;9322;50.932;5.318;2022-10-01T17:00:19;16.40;82.20
18392;DHT22;9322;50.932;5.318;2022-10-01T17:02:45;16.30;83.60
18392;DHT22;9322;50.932;5.318;2022-10-01T17:05:31;16.30;87.90
18392;DHT22;9322;50.932;5.318;2022-10-01T17:07:58;16.20;87.80
18392;DHT22;9322;50.932;5.318;2022-10-01T17:10:30;16.00;91.20
18392;DHT22;9322;50.932;5.318;2022-10-01T17:12:57;16.00;94.40
18392;DHT22;9322;50.932;5.318;2022-10-01T17:15:25;15.90;96.00
18392;DHT22;9322;50.932;5.318;2022-10-01T17:17:55;15.80;98.80
18392;DHT22;9322;50.932;5.318;2022-10-01T17:20:23;15.70;99.90
18392;DHT22;9322;50.932;5.318;2022-10-01T17:22:49;15.60;99.90
18392;DHT22;9322;50.932;5.318;2022-10-01T17:25:18;15.50;99.90
18392;DHT22;9322;50.932;5.318;2022-10-01T17:27:44;15.40;99.90
18392;DHT22;9322;50.932;5.318;2022-10-01T17:30:10;15.30;99.90
18392;DHT22;9322;50.932;5.318;2022-10-01T17:32:36;15.20;99.90
18392;DHT22;9322;50.932;5.318;2022-10-01T17:35:05;15.10;99.90
18392;DHT22;9322;50.932;5.318;2022-10-01T17:37:32;15.10;99.90
18392;DHT22;9322;50.932;5.318;2022-10-01T17:39:58;15.00;99.90
18392;DHT22;9322;50.932;5.318;2022-10-01T17:42:24;14.90;99.90
18392;DHT22;9322;50.932;5.318;2022-10-01T17:44:49;14.90;99.90
18392;DHT22;9322;50.932;5.318;2022-10-01T17:47:16;14.90;99.90
18392;DHT22;9322;50.932;5.318;2022-10-01T17:49:41;14.80;99.90
18392;DHT22;9322;50.932;5.318;2022-10-01T17:52:08;14.70;99.90
18392;DHT22;9322;50.932;5.318;2022-10-01T17:54:35;14.70;99.90
18392;DHT22;9322;50.932;5.318;2022-10-01T17:57:01;14.60;99.90
18392;DHT22;9322;50.932;5.318;2022-10-01T17:59:27;14.70;99.90
18392;DHT22;9322;50.932;5.318;2022-10-01T18:01:54;14.80;99.90
18392;DHT22;9322;50.932;5.318;2022-10-01T18:04:20;14.70;99.90
18392;DHT22;9322;50.932;5.318;2022-10-01T18:06:46;14.70;99.90
18392;DHT22;9322;50.932;5.318;2022-10-01T18:09:13;14.80;99.90
18392;DHT22;9322;50.932;5.318;2022-10-01T18:11:39;14.70;99.90
18392;DHT22;9322;50.932;5.318;2022-10-01T18:14:05;14.60;99.90
18392;DHT22;9322;50.932;5.318;2022-10-01T18:16:32;14.50;99.90
18392;DHT22;9322;50.932;5.318;2022-10-01T18:19:00;14.40;99.90
18392;DHT22;9322;50.932;5.318;2022-10-01T18:21:26;14.40;99.90
18392;DHT22;9322;50.932;5.318;2022-10-01T18:23:52;14.60;99.90
18392;DHT22;9322;50.932;5.318;2022-10-01T18:26:18;14.50;99.90
18392;DHT22;9322;50.932;5.318;2022-10-01T18:28:44;14.30;99.90
18392;DHT22;9322;50.932;5.318;2022-10-01T18:33:44;14.30;99.90
18392;DHT22;9322;50.932;5.318;2022-10-01T18:38:49;14.30;99.90
18392;DHT22;9322;50.932;5.318;2022-10-01T18:41:34;14.20;99.90
18392;DHT22;9322;50.932;5.318;2022-10-01T18:44:01;14.20;99.90
18392;DHT22;9322;50.932;5.318;2022-10-01T18:46:50;14.30;99.90
18392;DHT22;9322;50.932;5.318;2022-10-01T19:00:14;14.00;99.90
18392;DHT22;9322;50.932;5.318;2022-10-01T19:08:32;14.20;99.90
18392;DHT22;9322;50.932;5.318;2022-10-01T19:13:44;14.30;99.90
18392;DHT22;9322;50.932;5.318;2022-10-01T19:27:03;14.10;99.90